Time;durP1;ratioP1;P1;durP2;ratioP2;P2;SDS_P1;SDS_P2;PMS_P1;PMS_P2;Temp;Humidity;BMP_temperature;BMP_pressure;BME280_temperature;BME280_humidity;BME280_pressure;Samples;Min_cycle;Max_cycle;Signal;HPM_P1;HPM_P2
2020/12/24 00:01:03;;;;;;;21.65;19.50;;;26.30;68.10;;;;;;5047553;28;20230;-73
2020/12/24 00:03:34;;;;;;;21.20;19.00;;;26.30;68.10;;;;;;5050889;28;20694;-73
2020/12/24 00:06:05;;;;;;;20.92;18.83;;;26.30;68.10;;;;;;5050553;28;20234;-73
2020/12/24 00:08:37;;;;;;;22.05;19.75;;;26.30;68.10;;;;;;5050109;28;20241;-73
2020/12/24 00:11:08;;;;;;;20.15;17.92;;;26.40;68.20;;;;;;5049103;28;20232;-74
2020/12/24 00:13:39;;;;;;;20.20;18.10;;;26.40;68.10;;;;;;5050770;28;20640;-73
2020/12/24 00:16:10;;;;;;;19.30;17.10;;;26.40;68.00;;;;;;5049832;28;20257;-73
2020/12/24 00:18:44;;;;;;;18.45;16.15;;;26.40;68.00;;;;;;5049927;28;20316;-73
2020/12/24 00:21:14;;;;;;;18.00;16.10;;;26.40;68.20;;;;;;5045082;28;20237;-73
2020/12/24 00:23:46;;;;;;;17.17;15.43;;;26.50;69.10;;;;;;5049705;28;20237;-73
2020/12/24 00:26:17;;;;;;;19.77;17.67;;;26.50;68.50;;;;;;5049193;28;20232;-73
2020/12/24 00:28:48;;;;;;;17.75;16.02;;;26.60;68.60;;;;;;5049339;28;20325;-73
2020/12/24 00:31:19;;;;;;;19.60;17.60;;;26.60;68.50;;;;;;5045080;28;20233;-74
2020/12/24 00:33:49;;;;;;;19.23;17.33;;;26.60;68.50;;;;;;5049588;28;20234;-73
2020/12/24 00:36:20;;;;;;;21.92;19.73;;;26.70;68.50;;;;;;5039661;28;20258;-73
2020/12/24 00:38:52;;;;;;;20.52;18.42;;;26.70;68.30;;;;;;5030758;28;20704;-73
2020/12/24 00:41:23;;;;;;;20.10;18.00;;;26.80;68.20;;;;;;5040710;28;20237;-73
2020/12/24 00:43:54;;;;;;;21.98;19.60;;;26.80;68.10;;;;;;5049674;28;20237;-73
2020/12/24 00:46:25;;;;;;;22.63;19.67;;;26.90;68.10;;;;;;5050397;28;20316;-74
2020/12/24 00:48:56;;;;;;;21.95;19.60;;;26.90;67.90;;;;;;5049674;28;20249;-73
2020/12/24 00:51:27;;;;;;;22.92;20.75;;;27.00;67.90;;;;;;5051740;28;20233;-73
2020/12/24 00:53:59;;;;;;;23.33;20.80;;;27.00;67.80;;;;;;5050438;28;20221;-72
2020/12/24 00:56:30;;;;;;;23.00;20.52;;;27.00;67.40;;;;;;5046855;28;20230;-72
2020/12/24 00:59:03;;;;;;;22.45;20.13;;;27.10;67.50;;;;;;5048479;28;20245;-73
2020/12/24 01:01:34;;;;;;;22.65;20.33;;;27.10;67.30;;;;;;5046464;28;20682;-72
2020/12/24 01:04:05;;;;;;;24.00;21.50;;;27.10;67.30;;;;;;5051643;28;20233;-72
2020/12/24 01:06:35;;;;;;;23.27;20.83;;;27.20;67.30;;;;;;5055451;28;20723;-72
2020/12/24 01:09:07;;;;;;;24.00;21.50;;;27.20;67.20;;;;;;5053418;28;20238;-72
2020/12/24 01:11:37;;;;;;;22.30;20.00;;;27.20;66.70;;;;;;5050603;28;20625;-72
2020/12/24 01:14:08;;;;;;;21.70;19.48;;;27.20;66.80;;;;;;5042279;28;20249;-72
2020/12/24 01:16:39;;;;;;;23.05;19.70;;;27.30;66.60;;;;;;5038960;28;20225;-72
2020/12/24 01:19:10;;;;;;;20.17;18.17;;;27.30;66.50;;;;;;5053975;28;20648;-72
2020/12/24 01:21:43;;;;;;;22.40;19.08;;;27.40;66.60;;;;;;5052038;28;20243;-72
2020/12/24 01:24:15;;;;;;;23.80;20.75;;;27.40;66.50;;;;;;5051298;28;20233;-72
2020/12/24 01:26:48;;;;;;;26.13;20.02;;;27.50;66.20;;;;;;5044391;28;20258;-72
2020/12/24 01:29:19;;;;;;;24.92;19.30;;;27.60;66.30;;;;;;5048860;28;20283;-72
2020/12/24 01:31:49;;;;;;;21.23;18.83;;;27.60;66.30;;;;;;5048091;28;20237;-72
2020/12/24 01:34:20;;;;;;;20.73;18.60;;;27.70;66.20;;;;;;5051435;28;20238;-72
2020/12/24 01:36:51;;;;;;;20.25;18.25;;;27.70;66.10;;;;;;5048619;28;20230;-72
2020/12/24 01:39:23;;;;;;;22.25;18.33;;;27.80;65.70;;;;;;5050168;28;20230;-72
2020/12/24 01:41:53;;;;;;;20.48;18.50;;;27.80;65.50;;;;;;5049937;28;20238;-72
2020/12/24 01:44:24;;;;;;;22.23;19.63;;;27.90;65.10;;;;;;5051105;28;20312;-72
2020/12/24 01:46:55;;;;;;;21.80;19.50;;;27.90;64.90;;;;;;5050607;28;20236;-72
2020/12/24 01:49:26;;;;;;;23.25;20.85;;;27.90;64.60;;;;;;5049659;28;20287;-72
2020/12/24 01:51:58;;;;;;;22.75;20.33;;;28.00;64.60;;;;;;5050126;28;20234;-72
2020/12/24 01:54:31;;;;;;;22.05;19.88;;;28.10;64.30;;;;;;5051523;28;20251;-72
2020/12/24 01:57:01;;;;;;;21.23;19.13;;;28.10;64.40;;;;;;5054697;28;20233;-72
2020/12/24 01:59:32;;;;;;;20.58;18.60;;;28.20;64.60;;;;;;5053126;28;20234;-72
2020/12/24 02:02:03;;;;;;;22.85;20.52;;;28.20;64.40;;;;;;5052743;28;20309;-73
2020/12/24 02:04:34;;;;;;;21.75;19.65;;;28.30;63.70;;;;;;5052944;28;20229;-72
2020/12/24 02:07:05;;;;;;;22.70;20.40;;;28.30;64.00;;;;;;5050874;28;20256;-72
2020/12/24 02:09:37;;;;;;;21.05;18.85;;;28.40;63.00;;;;;;5053085;28;20233;-71
2020/12/24 02:12:07;;;;;;;21.25;19.25;;;28.40;63.20;;;;;;5051379;28;20246;-72
2020/12/24 02:14:38;;;;;;;21.17;19.02;;;28.50;63.00;;;;;;5053279;28;20634;-72
2020/12/24 02:17:09;;;;;;;21.20;19.17;;;28.60;62.30;;;;;;5048387;28;20230;-71
2020/12/24 02:19:41;;;;;;;20.92;18.95;;;28.60;62.10;;;;;;5050151;28;20912;-72
2020/12/24 02:22:13;;;;;;;20.63;18.52;;;28.70;61.80;;;;;;5050924;28;20701;-71
2020/12/24 02:24:44;;;;;;;19.23;17.38;;;28.70;61.50;;;;;;5052369;28;20238;-71
2020/12/24 02:27:14;;;;;;;22.65;19.83;;;28.70;61.70;;;;;;5052455;28;20233;-71
2020/12/24 02:29:45;;;;;;;19.25;17.35;;;28.80;61.20;;;;;;5052707;28;20221;-71
2020/12/24 02:32:16;;;;;;;18.17;16.48;;;28.80;61.50;;;;;;5049647;28;20241;-71
2020/12/24 02:34:46;;;;;;;18.25;16.55;;;28.90;61.70;;;;;;5032700;28;20250;-71
2020/12/24 02:37:18;;;;;;;20.90;18.73;;;29.00;61.70;;;;;;5044415;28;20299;-71
2020/12/24 02:39:49;;;;;;;21.58;19.05;;;29.00;61.40;;;;;;5051663;28;20237;-71
2020/12/24 02:42:19;;;;;;;20.65;18.60;;;29.10;60.90;;;;;;5051982;28;20637;-73
2020/12/24 02:44:50;;;;;;;19.25;17.20;;;29.10;60.90;;;;;;5052545;28;20237;-72
2020/12/24 02:47:21;;;;;;;20.58;18.50;;;29.20;61.00;;;;;;5043923;28;20698;-72
2020/12/24 02:49:59;;;;;;;21.58;19.48;;;29.20;60.70;;;;;;5052476;28;20245;-72
2020/12/24 02:52:30;;;;;;;20.13;18.10;;;29.20;60.30;;;;;;5051632;28;20333;-72
2020/12/24 02:55:01;;;;;;;20.85;18.77;;;29.30;60.50;;;;;;5053651;28;20271;-71
2020/12/24 02:57:31;;;;;;;21.65;19.45;;;29.30;60.30;;;;;;5052474;28;20233;-71
2020/12/24 03:00:08;;;;;;;21.48;18.00;;;29.40;60.30;;;;;;5052803;28;20677;-71
2020/12/24 03:02:39;;;;;;;20.00;18.08;;;29.40;60.30;;;;;;5054596;28;20312;-72
2020/12/24 03:05:10;;;;;;;21.42;19.23;;;29.40;60.00;;;;;;5051700;28;20238;-71
2020/12/24 03:07:41;;;;;;;21.38;19.08;;;29.40;59.90;;;;;;5062756;28;20688;-71
2020/12/24 03:10:12;;;;;;;25.27;19.85;;;29.40;59.60;;;;;;5058049;28;20257;-71
2020/12/24 03:12:43;;;;;;;21.67;19.30;;;29.40;59.60;;;;;;5051447;28;20279;-71
2020/12/24 03:15:14;;;;;;;22.35;20.10;;;29.50;59.70;;;;;;5051663;28;20701;-71
2020/12/24 03:17:44;;;;;;;22.95;20.17;;;29.50;59.50;;;;;;5049616;28;20234;-71
2020/12/24 03:20:18;;;;;;;21.65;19.58;;;29.50;59.50;;;;;;5049624;28;20260;-71
2020/12/24 03:22:49;;;;;;;22.15;19.67;;;29.50;59.70;;;;;;5048974;28;20320;-71
2020/12/24 03:25:20;;;;;;;23.08;20.65;;;29.50;59.50;;;;;;5040110;28;20225;-71
2020/12/24 03:27:51;;;;;;;22.38;20.08;;;29.50;59.40;;;;;;5048900;28;20312;-71
2020/12/24 03:30:22;;;;;;;21.35;19.15;;;29.50;59.40;;;;;;5050481;28;20225;-71
2020/12/24 03:32:52;;;;;;;22.00;19.80;;;29.50;59.40;;;;;;5042328;28;20698;-71
2020/12/24 03:35:23;;;;;;;21.60;19.48;;;29.50;59.40;;;;;;5050192;28;20759;-71
2020/12/24 03:37:55;;;;;;;23.42;20.92;;;29.60;59.60;;;;;;5050590;28;20237;-71
2020/12/24 03:40:25;;;;;;;23.05;20.55;;;29.60;59.60;;;;;;5048722;28;21118;-71
2020/12/24 03:42:56;;;;;;;23.40;20.85;;;29.60;59.50;;;;;;5030975;28;20235;-71
2020/12/24 03:45:27;;;;;;;24.23;21.73;;;29.60;59.40;;;;;;5040040;28;20725;-71
2020/12/24 03:47:57;;;;;;;22.35;20.08;;;29.60;59.30;;;;;;5050360;28;20249;-71
2020/12/24 03:50:38;;;;;;;22.25;20.15;;;29.70;59.50;;;;;;5051321;28;20229;-71
2020/12/24 03:53:10;;;;;;;22.30;20.05;;;29.70;59.50;;;;;;5051405;28;20230;-71
2020/12/24 03:55:40;;;;;;;21.83;19.67;;;29.80;59.30;;;;;;5050062;28;20250;-71
2020/12/24 03:58:11;;;;;;;22.90;20.50;;;29.80;59.20;;;;;;5050781;28;20245;-72
2020/12/24 04:00:43;;;;;;;22.95;20.58;;;29.80;58.80;;;;;;5049768;28;20242;-71
2020/12/24 04:03:13;;;;;;;21.70;19.42;;;29.80;58.70;;;;;;5049517;28;20643;-71
2020/12/24 04:05:44;;;;;;;19.77;17.83;;;29.90;58.80;;;;;;5043336;28;20642;-71
2020/12/24 04:08:16;;;;;;;20.58;18.55;;;29.90;58.80;;;;;;5050341;28;20264;-71
2020/12/24 04:10:46;;;;;;;20.65;18.60;;;30.00;59.10;;;;;;5049558;28;20283;-71
2020/12/24 04:13:17;;;;;;;21.35;19.08;;;30.00;59.20;;;;;;5051416;28;20234;-71
2020/12/24 04:15:48;;;;;;;21.63;19.45;;;30.10;59.10;;;;;;5050088;28;20265;-71
2020/12/24 04:18:19;;;;;;;24.73;21.35;;;30.10;58.80;;;;;;5030722;28;20226;-71
2020/12/24 04:21:00;;;;;;;20.38;18.13;;;30.10;58.60;;;;;;5031671;28;20272;-71
2020/12/24 04:23:31;;;;;;;21.02;19.00;;;30.20;58.80;;;;;;5051877;28;20234;-71
2020/12/24 04:26:02;;;;;;;20.98;18.95;;;30.20;58.80;;;;;;5037795;28;20240;-71
2020/12/24 04:28:33;;;;;;;21.83;19.70;;;30.30;58.80;;;;;;5030911;28;20919;-71
2020/12/24 04:31:04;;;;;;;22.85;20.75;;;30.30;58.60;;;;;;5030714;28;20226;-71
2020/12/24 04:33:34;;;;;;;20.58;18.48;;;30.40;58.20;;;;;;5032453;28;20234;-71
2020/12/24 04:36:05;;;;;;;20.05;18.15;;;30.40;58.30;;;;;;5034248;28;20237;-71
2020/12/24 04:38:37;;;;;;;20.35;18.27;;;30.50;58.40;;;;;;5040848;28;20316;-72
2020/12/24 04:41:07;;;;;;;19.33;17.42;;;30.50;58.60;;;;;;5047819;28;20237;-71
2020/12/24 04:43:38;;;;;;;21.33;18.55;;;30.60;58.70;;;;;;5032358;28;20234;-71
2020/12/24 04:46:09;;;;;;;18.92;17.13;;;30.60;58.80;;;;;;5051662;28;20331;-71
2020/12/24 04:48:40;;;;;;;17.77;16.13;;;30.70;57.90;;;;;;5032151;28;20238;-71
2020/12/24 04:51:20;;;;;;;16.40;14.82;;;30.80;58.00;;;;;;5030781;28;20238;-71
2020/12/24 04:53:52;;;;;;;15.75;14.23;;;30.80;58.10;;;;;;5032059;28;20238;-71
2020/12/24 04:56:23;;;;;;;16.55;14.85;;;30.90;58.10;;;;;;5030008;28;20593;-71
2020/12/24 04:58:55;;;;;;;15.32;13.82;;;30.90;57.90;;;;;;5031953;28;20252;-70
2020/12/24 05:01:26;;;;;;;15.50;13.93;;;31.10;57.70;;;;;;5022283;28;20283;-71
2020/12/24 05:03:57;;;;;;;16.08;14.65;;;31.10;57.30;;;;;;5031788;28;20687;-71
2020/12/24 05:06:28;;;;;;;16.15;14.55;;;31.20;56.80;;;;;;5028607;28;20329;-71
2020/12/24 05:09:00;;;;;;;15.77;14.27;;;31.20;56.70;;;;;;5032036;28;20246;-71
2020/12/24 05:11:31;;;;;;;17.50;15.55;;;31.30;56.40;;;;;;5031078;28;20629;-71
2020/12/24 05:14:17;;;;;;;16.48;14.88;;;31.40;56.30;;;;;;5032005;28;20749;-71
2020/12/24 05:16:59;;;;;;;16.40;14.80;;;31.40;56.00;;;;;;5032984;28;20276;-71
2020/12/24 05:19:30;;;;;;;16.80;15.20;;;31.50;56.30;;;;;;5041620;28;20263;-71
2020/12/24 05:22:10;;;;;;;17.08;15.50;;;31.50;56.00;;;;;;5052906;28;20234;-71
2020/12/24 05:24:43;;;;;;;16.42;14.88;;;31.60;56.00;;;;;;5052294;28;20229;-70
2020/12/24 05:27:15;;;;;;;16.25;14.70;;;31.70;56.10;;;;;;5053979;28;20252;-70
2020/12/24 05:29:46;;;;;;;17.40;15.80;;;31.70;56.30;;;;;;5051524;28;20610;-70
2020/12/24 05:32:16;;;;;;;17.00;15.30;;;31.80;56.30;;;;;;5051595;28;20232;-71
2020/12/24 05:34:47;;;;;;;17.75;16.05;;;31.80;56.10;;;;;;5053808;28;20637;-71
2020/12/24 05:37:18;;;;;;;17.35;15.55;;;31.90;56.20;;;;;;5051855;28;20244;-71
2020/12/24 05:39:50;;;;;;;17.77;16.08;;;32.00;56.20;;;;;;5050064;28;20232;-71
2020/12/24 05:42:24;;;;;;;17.27;15.65;;;32.00;55.60;;;;;;5050074;28;20686;-71
2020/12/24 05:44:55;;;;;;;17.00;15.40;;;32.10;55.60;;;;;;5047031;28;20251;-71
2020/12/24 05:47:31;;;;;;;17.95;16.25;;;32.10;55.80;;;;;;5047801;28;20608;-71
2020/12/24 05:50:02;;;;;;;17.50;15.80;;;32.20;55.40;;;;;;5049333;28;20316;-71
2020/12/24 05:52:33;;;;;;;18.38;15.98;;;32.30;55.60;;;;;;5051025;28;20225;-71
2020/12/24 05:55:05;;;;;;;18.30;16.42;;;32.30;55.40;;;;;;5059209;28;20475;-71
2020/12/24 05:57:35;;;;;;;16.02;14.63;;;32.40;54.90;;;;;;5049486;28;20237;-70
2020/12/24 06:00:06;;;;;;;16.95;15.10;;;32.40;55.00;;;;;;5048989;28;20292;-71
2020/12/24 06:02:37;;;;;;;17.35;15.57;;;32.50;53.80;;;;;;5048009;28;20591;-71
2020/12/24 06:05:09;;;;;;;15.40;13.82;;;32.60;54.20;;;;;;4989457;28;20352;-71
2020/12/24 06:07:40;;;;;;;14.95;13.52;;;32.60;54.00;;;;;;4986407;28;20738;-71
2020/12/24 06:10:12;;;;;;;15.23;13.63;;;32.70;54.00;;;;;;4988704;28;20255;-71
2020/12/24 06:12:52;;;;;;;15.57;14.05;;;32.70;53.90;;;;;;4974169;28;20240;-71
2020/12/24 06:15:23;;;;;;;13.32;12.02;;;32.80;53.90;;;;;;4989927;28;20274;-71
2020/12/24 06:17:54;;;;;;;20.17;18.27;;;32.80;54.10;;;;;;4976566;28;20240;-71
2020/12/24 06:20:24;;;;;;;24.05;21.60;;;32.80;55.20;;;;;;4982080;28;20677;-71
2020/12/24 06:22:55;;;;;;;20.48;18.52;;;32.90;55.60;;;;;;4911866;29;20282;-71
2020/12/24 06:25:27;;;;;;;22.20;20.05;;;32.90;55.60;;;;;;4855570;29;20323;-71
2020/12/24 06:27:58;;;;;;;23.08;20.77;;;32.90;55.80;;;;;;4855804;29;20686;-71
2020/12/24 06:30:29;;;;;;;22.70;20.58;;;32.90;56.00;;;;;;4857017;29;20236;-71
2020/12/24 06:33:00;;;;;;;26.25;23.65;;;32.90;56.30;;;;;;4855496;29;20241;-72
2020/12/24 06:35:37;;;;;;;25.85;23.30;;;32.90;56.40;;;;;;4868011;29;20230;-72
2020/12/24 06:38:08;;;;;;;26.80;24.20;;;32.90;56.70;;;;;;4913401;29;20333;-71
2020/12/24 06:40:40;;;;;;;27.00;24.50;;;32.90;57.00;;;;;;4913760;29;20241;-71
2020/12/24 06:43:11;;;;;;;25.77;23.33;;;32.80;57.30;;;;;;4912558;29;20606;-71
2020/12/24 06:45:42;;;;;;;23.80;21.40;;;32.80;57.50;;;;;;4913151;29;20310;-71
2020/12/24 06:48:18;;;;;;;29.67;26.83;;;32.80;57.60;;;;;;4911644;29;20234;-71
2020/12/24 06:50:49;;;;;;;28.25;25.45;;;32.70;57.90;;;;;;4931816;29;20392;-71
2020/12/24 06:53:27;;;;;;;27.70;24.65;;;32.70;57.90;;;;;;4914091;28;20260;-72
2020/12/24 06:56:23;;;;;;;28.25;25.38;;;32.70;58.00;;;;;;5009528;28;20320;-71
2020/12/24 06:58:58;;;;;;;30.92;28.08;;;32.70;58.10;;;;;;5047832;28;20218;-71
2020/12/24 07:01:30;;;;;;;27.95;25.05;;;32.70;58.10;;;;;;5046328;28;20233;-71
2020/12/24 07:04:01;;;;;;;26.95;24.33;;;32.70;58.10;;;;;;5049907;28;20236;-70
2020/12/24 07:06:55;;;;;;;31.27;28.30;;;32.60;58.30;;;;;;5043747;28;20229;-71
2020/12/24 07:09:44;;;;;;;31.02;27.83;;;32.60;59.10;;;;;;5045168;28;20666;-70
2020/12/24 07:12:34;;;;;;;36.03;32.60;;;32.60;58.70;;;;;;5047749;28;20226;-71
2020/12/24 07:15:25;;;;;;;33.15;29.95;;;32.60;58.90;;;;;;5046821;28;20759;-71
2020/12/24 07:17:59;;;;;;;32.28;29.13;;;32.60;59.20;;;;;;5037459;28;20679;-71
2020/12/24 07:20:29;;;;;;;35.35;31.88;;;32.50;58.60;;;;;;5033608;28;20670;-71
2020/12/24 07:23:00;;;;;;;31.52;28.52;;;32.50;58.10;;;;;;5009193;28;20681;-70
2020/12/24 07:25:31;;;;;;;30.98;27.85;;;32.50;58.30;;;;;;5003713;28;20239;-70
2020/12/24 07:28:04;;;;;;;32.88;29.77;;;32.40;58.50;;;;;;5006122;28;20239;-71
2020/12/24 07:30:35;;;;;;;33.15;30.08;;;32.40;58.50;;;;;;5008190;28;20235;-71
2020/12/24 07:33:06;;;;;;;36.63;32.92;;;32.40;58.50;;;;;;5006632;28;20255;-71
2020/12/24 07:35:36;;;;;;;35.72;32.28;;;32.40;58.50;;;;;;5004984;28;20223;-71
2020/12/24 07:38:07;;;;;;;35.63;32.05;;;32.40;58.60;;;;;;5006900;28;20242;-71
2020/12/24 07:40:38;;;;;;;29.55;26.73;;;32.30;58.60;;;;;;5006255;28;20245;-71
2020/12/24 07:43:13;;;;;;;33.05;29.95;;;32.30;58.80;;;;;;5005220;28;20266;-71
2020/12/24 07:45:44;;;;;;;34.08;30.85;;;32.30;58.90;;;;;;5008247;28;20651;-71
2020/12/24 07:48:17;;;;;;;35.67;31.90;;;32.30;58.90;;;;;;5003625;28;20817;-71
2020/12/24 07:50:49;;;;;;;30.92;28.13;;;32.20;59.20;;;;;;5000216;28;20346;-71
2020/12/24 07:53:20;;;;;;;33.78;30.40;;;32.20;59.30;;;;;;5005623;28;20245;-71
2020/12/24 07:55:50;;;;;;;29.33;26.52;;;32.10;59.30;;;;;;5046277;28;20281;-71
2020/12/24 07:58:22;;;;;;;28.23;25.42;;;32.10;59.30;;;;;;5046821;28;20226;-71
2020/12/24 08:00:53;;;;;;;29.27;26.52;;;32.00;58.90;;;;;;5047029;28;20244;-71
2020/12/24 08:03:24;;;;;;;28.45;25.60;;;32.00;59.00;;;;;;5046168;28;20697;-71
2020/12/24 08:06:03;;;;;;;29.05;26.05;;;32.00;58.80;;;;;;5046436;28;20709;-71
2020/12/24 08:08:36;;;;;;;28.20;25.45;;;31.90;58.50;;;;;;5046561;28;20230;-72
2020/12/24 08:11:08;;;;;;;26.60;24.27;;;31.90;58.60;;;;;;5046252;28;20230;-71
2020/12/24 08:13:40;;;;;;;27.58;24.88;;;31.80;58.70;;;;;;5046872;28;20312;-71
2020/12/24 08:16:13;;;;;;;32.67;25.50;;;31.80;58.70;;;;;;5041667;28;20234;-71
2020/12/24 08:18:46;;;;;;;27.92;25.13;;;31.80;59.40;;;;;;5045820;28;20938;-71
2020/12/24 08:21:23;;;;;;;27.70;24.95;;;31.80;58.60;;;;;;5033883;28;20317;-71
2020/12/24 08:23:54;;;;;;;30.55;27.70;;;31.80;58.70;;;;;;5046044;28;20229;-71
2020/12/24 08:26:25;;;;;;;27.92;25.33;;;31.70;58.90;;;;;;5046188;28;20287;-71
2020/12/24 08:28:57;;;;;;;31.40;28.25;;;31.70;59.10;;;;;;5012411;28;20249;-71
2020/12/24 08:31:28;;;;;;;26.73;24.33;;;31.70;58.70;;;;;;5019040;28;20606;-71
2020/12/24 08:34:00;;;;;;;30.33;27.52;;;31.70;59.50;;;;;;5022147;28;20254;-71
2020/12/24 08:36:31;;;;;;;27.17;24.55;;;31.60;59.70;;;;;;5005405;28;20288;-71
2020/12/24 08:39:08;;;;;;;26.17;23.70;;;31.60;59.70;;;;;;5004955;28;20266;-71
2020/12/24 08:41:40;;;;;;;28.08;25.48;;;31.60;59.80;;;;;;5004954;28;20312;-70
2020/12/24 08:44:16;;;;;;;30.88;27.95;;;31.60;59.90;;;;;;5015434;28;20245;-71
2020/12/24 08:46:47;;;;;;;31.20;28.02;;;31.60;60.20;;;;;;5004854;28;20239;-71
2020/12/24 08:49:24;;;;;;;29.98;27.08;;;31.60;60.50;;;;;;5016828;28;20325;-72
2020/12/24 08:52:10;;;;;;;27.05;24.40;;;31.60;60.70;;;;;;5005055;28;20238;-71
2020/12/24 08:54:40;;;;;;;33.78;30.33;;;31.50;61.20;;;;;;5039264;28;20259;-71
2020/12/24 08:57:12;;;;;;;29.80;27.10;;;31.60;61.00;;;;;;5003404;28;20253;-71
2020/12/24 08:59:44;;;;;;;31.17;27.98;;;31.50;61.10;;;;;;5004768;28;20238;-71
2020/12/24 09:02:26;;;;;;;29.38;26.13;;;31.60;61.40;;;;;;4940368;28;20267;-71
2020/12/24 09:04:57;;;;;;;27.77;25.20;;;31.50;61.80;;;;;;4948560;28;21130;-71
2020/12/24 09:07:30;;;;;;;27.65;24.90;;;31.50;61.60;;;;;;4944960;28;20253;-72
2020/12/24 09:10:08;;;;;;;29.73;26.95;;;31.50;61.60;;;;;;4945538;28;20806;-72
2020/12/24 09:12:39;;;;;;;27.85;25.05;;;31.50;61.90;;;;;;4944982;28;20240;-71
2020/12/24 09:15:11;;;;;;;28.30;25.35;;;31.50;62.00;;;;;;4945682;28;20319;-70
2020/12/24 09:17:50;;;;;;;27.20;24.55;;;31.50;62.00;;;;;;4943434;28;20272;-71
2020/12/24 09:20:24;;;;;;;29.35;26.65;;;31.50;62.40;;;;;;4947278;28;20266;-71
2020/12/24 09:22:55;;;;;;;27.20;24.77;;;31.50;62.30;;;;;;4948667;28;20272;-71
2020/12/24 09:25:33;;;;;;;27.05;24.48;;;31.50;62.20;;;;;;4945673;28;20237;-71
2020/12/24 09:28:03;;;;;;;26.17;23.50;;;31.50;62.20;;;;;;5025820;28;20332;-71
2020/12/24 09:30:36;;;;;;;26.13;23.83;;;31.50;62.20;;;;;;5048405;28;20230;-71
2020/12/24 09:33:06;;;;;;;25.58;23.25;;;31.50;62.20;;;;;;5063479;28;20263;-71
2020/12/24 09:35:37;;;;;;;26.38;23.85;;;31.50;62.20;;;;;;5052409;28;20226;-71
2020/12/24 09:38:07;;;;;;;29.05;26.23;;;31.40;62.40;;;;;;5065822;28;20225;-71
2020/12/24 09:40:38;;;;;;;27.95;25.25;;;31.50;62.50;;;;;;5071636;28;20229;-71
2020/12/24 09:43:08;;;;;;;27.50;24.90;;;31.50;62.50;;;;;;5033540;28;20532;-71
2020/12/24 09:45:40;;;;;;;27.17;24.58;;;31.40;62.40;;;;;;5050741;28;20352;-71
2020/12/24 09:48:11;;;;;;;26.23;23.75;;;31.40;62.40;;;;;;5053045;28;20232;-71
2020/12/24 09:50:42;;;;;;;25.38;22.75;;;31.40;62.50;;;;;;5051926;28;20217;-71
2020/12/24 09:53:13;;;;;;;25.48;22.80;;;31.50;62.60;;;;;;5050062;28;20626;-71
2020/12/24 09:55:44;;;;;;;25.27;22.80;;;31.50;62.60;;;;;;5050181;28;20222;-71
2020/12/24 09:58:14;;;;;;;27.23;24.55;;;31.40;62.70;;;;;;5050071;28;20693;-72
2020/12/24 10:00:46;;;;;;;27.30;24.50;;;31.40;62.90;;;;;;5055376;28;20225;-71
2020/12/24 10:03:17;;;;;;;27.08;24.48;;;31.40;63.10;;;;;;5050789;28;20633;-71
2020/12/24 10:05:48;;;;;;;23.70;21.42;;;31.40;63.20;;;;;;5054159;28;20233;-71
2020/12/24 10:08:19;;;;;;;26.55;24.05;;;31.40;63.20;;;;;;5040959;28;20697;-71
2020/12/24 10:10:51;;;;;;;26.63;23.65;;;31.40;63.50;;;;;;5044419;28;21057;-71
2020/12/24 10:13:21;;;;;;;24.10;21.60;;;31.40;63.50;;;;;;5051913;28;20250;-71
2020/12/24 10:15:53;;;;;;;25.55;23.23;;;31.30;63.50;;;;;;5050100;28;20712;-71
2020/12/24 10:18:24;;;;;;;31.30;28.33;;;31.30;63.90;;;;;;5033343;28;20231;-71
2020/12/24 10:20:55;;;;;;;30.75;27.60;;;31.30;64.20;;;;;;5048564;28;20260;-71
2020/12/24 10:23:25;;;;;;;25.65;23.25;;;31.30;64.90;;;;;;5042932;28;20246;-71
2020/12/24 10:25:56;;;;;;;25.45;22.95;;;31.30;64.30;;;;;;5047385;28;20283;-71
2020/12/24 10:28:27;;;;;;;25.63;23.17;;;31.30;64.30;;;;;;5051926;28;20387;-71
2020/12/24 10:30:59;;;;;;;26.52;23.83;;;31.30;64.30;;;;;;5049162;28;20257;-71
2020/12/24 10:33:29;;;;;;;23.73;21.48;;;31.30;64.40;;;;;;5048133;28;20755;-71
2020/12/24 10:36:00;;;;;;;22.88;20.48;;;31.30;64.40;;;;;;5051318;28;20226;-71
2020/12/24 10:38:30;;;;;;;22.38;20.27;;;31.20;64.20;;;;;;5051855;28;20229;-71
2020/12/24 10:41:01;;;;;;;23.45;21.08;;;31.20;63.70;;;;;;5050420;28;20716;-71
2020/12/24 10:43:33;;;;;;;22.42;20.15;;;31.20;63.70;;;;;;5050818;28;20242;-71
2020/12/24 10:46:05;;;;;;;22.48;20.35;;;31.20;63.60;;;;;;5049628;28;20751;-71
2020/12/24 10:48:36;;;;;;;22.58;20.35;;;31.20;63.50;;;;;;5051496;28;20226;-70
2020/12/24 10:51:08;;;;;;;21.33;19.42;;;31.20;63.40;;;;;;5043515;28;20657;-70
2020/12/24 10:53:38;;;;;;;20.38;18.45;;;31.20;63.20;;;;;;5049719;28;20689;-71
2020/12/24 10:56:13;;;;;;;18.85;16.83;;;31.20;62.80;;;;;;5050525;28;20230;-71
2020/12/24 10:58:44;;;;;;;20.40;18.25;;;31.20;62.80;;;;;;5050768;28;20229;-71
2020/12/24 11:01:16;;;;;;;23.67;21.25;;;31.30;62.90;;;;;;5049555;28;20324;-70
2020/12/24 11:03:46;;;;;;;21.60;19.38;;;31.30;63.40;;;;;;5046627;28;20312;-71
2020/12/24 11:06:20;;;;;;;21.23;19.08;;;31.20;63.50;;;;;;5051116;28;20230;-71
2020/12/24 11:08:52;;;;;;;22.00;19.80;;;31.20;63.80;;;;;;5044599;28;20303;-70
2020/12/24 11:11:22;;;;;;;23.40;21.08;;;31.20;63.70;;;;;;5045781;28;20268;-70
2020/12/24 11:13:53;;;;;;;24.02;21.67;;;31.30;63.60;;;;;;5042503;28;20225;-70
2020/12/24 11:16:26;;;;;;;22.42;20.00;;;31.30;63.70;;;;;;5034790;28;20236;-70
2020/12/24 11:18:56;;;;;;;22.00;18.73;;;31.20;63.30;;;;;;5048148;28;20614;-71
2020/12/24 11:21:27;;;;;;;21.30;19.20;;;31.20;63.00;;;;;;5049688;28;20225;-70
2020/12/24 11:23:58;;;;;;;21.77;19.85;;;31.30;63.10;;;;;;5042579;28;20261;-71
2020/12/24 11:26:32;;;;;;;24.10;21.58;;;31.20;63.00;;;;;;5042112;28;20229;-71
2020/12/24 11:29:02;;;;;;;22.48;20.27;;;31.20;63.20;;;;;;5048016;28;20298;-71
2020/12/24 11:31:35;;;;;;;22.85;20.65;;;31.20;63.50;;;;;;5045531;28;20249;-71
2020/12/24 11:34:06;;;;;;;23.15;20.85;;;31.20;64.10;;;;;;5046223;28;20253;-71
2020/12/24 11:36:36;;;;;;;22.25;20.20;;;31.20;64.20;;;;;;5047300;28;20233;-71
2020/12/24 11:39:07;;;;;;;23.70;21.52;;;31.20;64.50;;;;;;5031673;28;20226;-71
2020/12/24 11:41:38;;;;;;;25.63;22.92;;;31.20;64.80;;;;;;5050198;28;20237;-71
2020/12/24 11:44:09;;;;;;;30.08;27.00;;;31.20;64.80;;;;;;5049068;28;20246;-71
2020/12/24 11:46:41;;;;;;;30.02;27.02;;;31.20;64.80;;;;;;5041048;28;20246;-71
2020/12/24 11:49:12;;;;;;;27.95;25.23;;;31.10;64.80;;;;;;5049123;28;20924;-71
2020/12/24 11:51:42;;;;;;;27.60;24.77;;;31.10;64.80;;;;;;5049833;28;20237;-71
2020/12/24 11:54:13;;;;;;;26.58;24.02;;;31.10;64.90;;;;;;5050473;28;20226;-71
2020/12/24 11:56:43;;;;;;;25.70;23.17;;;31.10;65.00;;;;;;5049985;28;20237;-71
2020/12/24 11:59:14;;;;;;;23.55;21.30;;;31.20;65.40;;;;;;5050389;28;20704;-71
2020/12/24 12:01:45;;;;;;;25.48;23.05;;;31.10;65.50;;;;;;5049959;28;20240;-71
2020/12/24 12:04:16;;;;;;;22.83;20.70;;;31.10;65.70;;;;;;5049619;28;20241;-71
2020/12/24 12:06:50;;;;;;;24.88;21.60;;;31.10;65.80;;;;;;5049311;28;20228;-71
2020/12/24 12:09:22;;;;;;;27.85;24.85;;;31.10;65.90;;;;;;5050312;28;20226;-71
2020/12/24 12:11:52;;;;;;;24.70;22.27;;;31.10;66.10;;;;;;5050228;28;20234;-71
2020/12/24 12:14:23;;;;;;;23.30;21.10;;;31.00;65.90;;;;;;5049993;28;20264;-71
2020/12/24 12:16:55;;;;;;;23.40;21.27;;;31.00;66.00;;;;;;5049860;28;20721;-71
2020/12/24 12:19:25;;;;;;;24.25;21.77;;;31.00;66.10;;;;;;5050212;28;20312;-71
2020/12/24 12:21:56;;;;;;;24.15;21.58;;;31.00;66.00;;;;;;5048851;28;20221;-71
2020/12/24 12:24:27;;;;;;;21.92;19.90;;;31.00;66.10;;;;;;5048702;28;20237;-71
2020/12/24 12:26:58;;;;;;;23.90;21.48;;;30.90;66.00;;;;;;5049159;28;20635;-71
2020/12/24 12:29:29;;;;;;;23.90;21.67;;;30.90;66.10;;;;;;5034177;28;20229;-71
2020/12/24 12:32:01;;;;;;;24.90;22.42;;;30.90;66.10;;;;;;5040366;28;20230;-71
2020/12/24 12:34:32;;;;;;;25.30;22.63;;;30.90;66.20;;;;;;5049985;28;20614;-71
2020/12/24 12:37:02;;;;;;;25.38;22.67;;;30.80;66.20;;;;;;5049713;28;20226;-71
2020/12/24 12:39:33;;;;;;;33.35;28.30;;;30.80;66.30;;;;;;5048492;28;20234;-71
2020/12/24 12:42:04;;;;;;;37.25;33.33;;;30.90;66.40;;;;;;5049453;28;20237;-71
2020/12/24 12:44:35;;;;;;;38.20;32.17;;;30.80;66.40;;;;;;5051023;28;20237;-72
2020/12/24 12:47:06;;;;;;;30.40;27.25;;;30.80;66.40;;;;;;5041161;28;20237;-71
2020/12/24 12:49:37;;;;;;;27.33;24.48;;;30.80;66.50;;;;;;5047081;28;20237;-71
2020/12/24 12:52:07;;;;;;;25.70;23.15;;;30.80;66.50;;;;;;5050624;28;20257;-70